Ypenburg, Netherlands
Current Conditions -  °F | °C
As of 4:55 AM on Monday 24 Nov 2014 (Local Time) from EHRD Reporting Station
Heavy Rain Heavy Rain  
Wind Chill:   Ceiling: 3900
Heat Index:   Visibility: 6mi
Dew Point:   Wind: 5mph
Humidity: 93%   Direction: 270°W
Pressure: 30.15"   Gusts: NA
Location:  52.04°N, 4.37°E
Report Text: EHRD 240355Z AUTO 27004KT 240V310 9999 +DZRA SCT015CB BKN039BKN043 08/07 Q1021 NOSIG
Loading
Personal Weather Stations






























Interactive Weather Map New forecast layout! Learn more

10-Day Weather Forecast

Advertisements
Track Severe Weather on mobile